Latest Weather Observations for Hartz Mountains

IDT60801

Issued at 5:02 pm EST Saturday 2 July 2016 (issued every 30 minutes, with the page automatically refreshed every 10 minutes)

About weather observations | Map of weather stations | Latest weather observations for TAS | Other Formats
Station Details ID: 094191 Name: HARTZ MOUNTAIN (KEOGHS PIMPLE) Lat: -43.20 Lon: 146.77 Height: 831.0 m
Data from the previous 72 hours. | See also: Recent months at Hartz Mountains
Date/Time
EST
Temp
°C
App
Temp
°C
Dew
Point
°C
Rel
Hum
%
Delta-T
°C
Wind Press
QNH
hPa
Press
MSL
hPa
Rain since
9am
mm
Dir  Spd
km/h
Gust
km/h
Spd
kts
Gust
kts
02/05:00pm 4.6 -5.4 4.5 99 0.0 W 46 69 25 37 - - 0.2
02/04:55pm 4.6 -6.9 4.5 99 0.0 WNW 54 72 29 39 - - 0.2
02/04:49pm 4.6 -6.9 4.3 98 0.1 WNW 54 72 29 39 - - 0.2
02/04:30pm 5.3 -3.2 5.2 99 0.0 W 39 61 21 33 - - 0.2
02/04:00pm 5.5 -2.6 5.4 99 0.0 WNW 37 59 20 32 - - 0.2
02/03:33pm 5.4 -3.1 5.1 98 0.1 WNW 39 57 21 31 - - 0.2
02/03:30pm 5.4 -3.1 5.1 98 0.1 W 39 56 21 30 - - 0.2
02/03:00pm 5.1 -2.7 4.8 98 0.1 W 35 65 19 35 - - 0.2
02/02:30pm 5.0 -4.9 4.7 98 0.1 WNW 46 72 25 39 - - 0.2
02/02:00pm 5.0 -4.4 4.6 97 0.2 W 43 61 23 33 - - 0.2
02/01:30pm 4.8 -5.9 4.4 97 0.2 W 50 70 27 38 - - 0.2
02/01:00pm 5.0 -6.8 4.6 97 0.2 WNW 56 76 30 41 - - 0.2
02/12:31pm 5.1 -6.8 4.5 96 0.3 W 56 78 30 42 - - 0.2
02/12:30pm 5.1 -6.8 4.5 96 0.3 W 56 69 30 37 - - 0.2
02/12:00pm 4.8 -7.3 4.2 96 0.3 W 57 85 31 46 - - 0.2
02/11:30am 5.0 -7.5 4.0 93 0.4 W 59 82 32 44 - - 0.2
02/11:00am 5.0 -7.1 4.3 95 0.3 W 57 85 31 46 - - 0.2
02/10:30am 5.5 -5.5 5.2 98 0.1 W 52 83 28 45 - - 0.2
02/10:27am 5.4 -4.8 5.1 98 0.1 W 48 83 26 45 - - 0.2
02/10:00am 5.5 -3.7 5.4 99 0.0 W 43 65 23 35 - - 0.2
02/09:49am 5.4 -3.1 5.3 99 0.0 W 39 57 21 31 - - 0.2
02/09:30am 5.2 -4.1 5.1 99 0.0 WNW 43 59 23 32 - - 0.2
02/09:00am 4.9 -4.6 4.8 99 0.0 WNW 44 65 24 35 - - 0.2
02/08:30am 5.0 -4.3 4.9 99 0.0 W 43 67 23 36 - - 0.2
02/08:00am 4.8 -3.8 4.5 98 0.1 W 39 59 21 32 - - 0.2
02/07:30am 4.7 -4.8 4.1 96 0.3 WNW 43 63 23 34 - - 0.2
02/07:00am 4.5 -5.9 4.1 97 0.2 WNW 48 67 26 36 - - 0.2
02/06:30am 4.4 -6.4 4.0 97 0.2 W 50 72 27 39 - - 0.2
02/06:00am 4.6 -7.5 4.3 98 0.1 W 57 76 31 41 - - 0.2
02/05:30am 5.0 -7.0 4.7 98 0.1 W 57 78 31 42 - - 0.2
02/05:00am 5.0 -5.6 4.9 99 0.0 W 50 70 27 38 - - 0.2
02/04:30am 4.7 -5.2 4.6 99 0.0 W 46 67 25 36 - - 0.2
02/04:00am 4.6 -5.4 4.5 99 0.0 W 46 69 25 37 - - 0.2
02/03:30am 4.7 -5.6 4.6 99 0.0 W 48 70 26 38 - - 0.2
02/03:00am 4.7 -6.4 4.6 99 0.0 W 52 72 28 39 - - 0.2
02/02:30am 4.5 -6.6 4.4 99 0.0 W 52 89 28 48 - - 0.2
02/02:00am 4.6 -6.1 4.5 99 0.0 WNW 50 74 27 40 - - 0.2
02/01:30am 4.4 -7.7 4.3 99 0.0 W 57 87 31 47 - - 0.2
02/01:00am 4.7 -6.4 4.6 99 0.0 WNW 52 74 28 40 - - 0.2
02/12:30am 4.8 -5.5 4.7 99 0.0 W 48 72 26 39 - - 0.2
02/12:00am 4.9 -4.4 4.8 99 0.0 W 43 76 23 41 - - 0.2
 
Date/Time
EST
Temp
°C
App
Temp
°C
Dew
Point
°C
Rel
Hum
%
Delta-T
°C
Wind Press
QNH
hPa
Press
MSL
hPa
Rain since
9am
mm
Dir  Spd
km/h
Gust
km/h
Spd
kts
Gust
kts
01/11:30pm 4.8 -5.1 4.7 99 0.0 WNW 46 72 25 39 - - 0.2
01/11:00pm 4.7 -4.7 4.6 99 0.0 WNW 43 87 23 47 - - 0.2
01/10:58pm 4.7 -4.9 4.6 99 0.0 WNW 44 87 24 47 - - 0.2
01/10:44pm 4.6 -3.3 4.5 99 0.0 W 35 61 19 33 - - 0.2
01/10:30pm 4.5 -4.1 4.4 99 0.0 WNW 39 56 21 30 - - 0.2
01/10:07pm 4.7 -4.3 4.6 99 0.0 WNW 41 59 22 32 - - 0.2
01/10:00pm 4.7 -4.7 4.6 99 0.0 W 43 59 23 32 - - 0.2
01/09:34pm 4.8 -3.0 4.7 99 0.0 WNW 35 54 19 29 - - 0.2
01/09:30pm 4.7 -3.2 4.6 99 0.0 WNW 35 50 19 27 - - 0.2
01/09:00pm 4.6 -3.6 4.5 99 0.0 W 37 56 20 30 - - 0.2
01/08:40pm 4.6 -4.4 4.5 99 0.0 WNW 41 61 22 33 - - 0.2
01/08:30pm 4.5 -4.9 4.4 99 0.0 W 43 57 23 31 - - 0.2
01/08:15pm 4.6 -3.3 4.5 99 0.0 WNW 35 54 19 29 - - 0.2
01/08:00pm 4.8 -2.7 4.7 99 0.0 WNW 33 50 18 27 - - 0.2
01/07:30pm 4.8 -3.0 4.7 99 0.0 WNW 35 57 19 31 - - 0.2
01/07:00pm 4.6 -4.8 4.5 99 0.0 WNW 43 61 23 33 - - 0.2
01/06:30pm 4.6 -3.3 4.5 99 0.0 WNW 35 67 19 36 - - 0.2
01/06:03pm 4.5 -4.5 4.4 99 0.0 WNW 41 61 22 33 - - 0.2
01/06:00pm 4.5 -4.1 4.4 99 0.0 WNW 39 59 21 32 - - 0.2
01/05:38pm 4.2 -2.4 4.1 99 0.0 WNW 28 46 15 25 - - 0.2
01/05:30pm 4.2 -3.2 4.1 99 0.0 WNW 32 50 17 27 - - 0.2
01/05:00pm 4.1 -6.4 3.8 98 0.1 WNW 48 72 26 39 - - 0.2
01/04:30pm 4.2 -7.4 3.9 98 0.1 WNW 54 78 29 42 - - 0.2
01/04:00pm 4.1 -6.0 4.0 99 0.0 WNW 46 65 25 35 - - 0.2
01/03:30pm 4.0 -5.5 3.7 98 0.1 WNW 43 63 23 34 - - 0.2
01/03:09pm 4.0 -5.7 3.7 98 0.1 WNW 44 63 24 34 - - 0.2
01/03:00pm 4.0 -6.1 3.7 98 0.1 W 46 63 25 34 - - 0.2
01/02:30pm 3.9 -4.5 3.5 97 0.2 WNW 37 69 20 37 - - 0.2
01/02:00pm 3.8 -6.0 3.5 98 0.1 W 44 74 24 40 - - 0.2
01/01:30pm 3.5 -7.5 2.9 96 0.3 WNW 50 69 27 37 - - 0.2
01/01:00pm 3.4 -8.8 2.7 95 0.3 W 56 80 30 43 - - 0.0
01/12:30pm 3.2 -9.2 2.5 95 0.3 W 57 80 31 43 - - 0.0
01/12:00pm 3.5 -7.6 2.5 93 0.4 W 50 74 27 40 - - 0.0
01/11:30am 3.0 -11.0 2.3 95 0.3 W 65 87 35 47 - - 0.0
01/11:00am 3.4 -9.4 2.7 95 0.3 W 59 78 32 42 - - 0.0
01/10:30am 3.5 -9.2 2.9 96 0.3 W 59 78 32 42 - - 0.0
01/10:00am 3.2 -7.8 2.9 98 0.1 W 50 70 27 38 - - 0.0
01/09:37am 3.5 -6.7 3.4 99 0.0 W 46 65 25 35 - - 0.0
01/09:30am 3.4 -6.8 3.3 99 0.0 W 46 63 25 34 - - 0.0
01/09:02am 3.4 -4.7 3.3 99 0.0 W 35 54 19 29 - - 0.0
01/09:00am 3.3 -4.8 3.2 99 0.0 W 35 52 19 28 - - 1.6
01/08:30am 3.1 -7.5 3.0 99 0.0 W 48 69 26 37 - - 1.6
01/08:00am 3.2 -6.6 3.1 99 0.0 WSW 44 69 24 37 - - 1.6
01/07:49am 3.2 -5.7 3.1 99 0.0 W 39 59 21 32 - - 1.6
01/07:30am 3.2 -4.4 3.1 99 0.0 W 32 48 17 26 - - 1.6
01/07:00am 3.1 -3.8 2.8 98 0.1 WNW 28 48 15 26 - - 1.6
01/06:31am 2.7 -5.0 2.1 96 0.2 W 32 57 17 31 - - 1.6
01/06:30am 2.7 -5.0 2.1 96 0.2 W 32 46 17 25 - - 1.6
01/06:19am 2.7 -5.1 2.0 95 0.3 W 32 54 17 29 - - 1.6
01/06:00am 2.4 -3.1 1.8 96 0.2 W 20 37 11 20 - - 1.6
01/05:49am 2.6 -4.8 2.0 96 0.2 W 30 43 16 23 - - 1.6
01/05:30am 2.5 -7.0 1.9 96 0.2 W 41 54 22 29 - - 1.6
01/05:00am 2.5 -8.3 1.8 95 0.3 W 48 57 26 31 - - 1.6
01/04:44am 2.4 -7.7 1.5 94 0.4 W 44 63 24 34 - - 1.6
01/04:30am 2.5 -7.9 1.8 95 0.3 W 46 59 25 32 - - 1.6
01/04:00am 2.4 -7.5 1.8 96 0.2 W 43 57 23 31 - - 1.6
01/03:41am 2.8 -4.9 2.2 96 0.2 WSW 32 50 17 27 - - 1.6
01/03:30am 2.7 -6.0 2.1 96 0.2 WSW 37 54 20 29 - - 1.6
01/03:00am 2.7 -8.1 2.0 95 0.3 W 48 61 26 33 - - 1.6
01/02:30am 2.7 -7.7 2.1 96 0.2 W 46 59 25 32 - - 1.6
01/02:00am 3.0 -6.4 2.6 97 0.2 WSW 41 56 22 30 - - 1.6
01/01:56am 3.1 -5.1 2.7 97 0.2 WSW 35 54 19 29 - - 1.6
01/01:30am 2.9 -5.3 2.8 99 0.0 WSW 35 48 19 26 - - 1.6
01/01:14am 2.9 -4.7 2.8 99 0.0 W 32 50 17 27 - - 1.6
01/01:00am 3.1 -4.7 3.1 100 0.0 W 33 44 18 24 - - 1.6
01/12:30am 3.1 -4.5 3.1 100 0.0 W 32 43 17 23 - - 1.6
01/12:00am 3.3 -5.9 3.3 100 0.0 W 41 48 22 26 - - 1.6
 
Date/Time
EST
Temp
°C
App
Temp
°C
Dew
Point
°C
Rel
Hum
%
Delta-T
°C
Wind Press
QNH
hPa
Press
MSL
hPa
Rain since
9am
mm
Dir  Spd
km/h
Gust
km/h
Spd
kts
Gust
kts
30/11:30pm 3.8 -5.3 3.8 100 0.0 W 41 48 22 26 - - 1.4
30/11:00pm 3.9 -4.1 3.8 99 0.0 WSW 35 46 19 25 - - 1.4
30/10:30pm 3.9 -3.5 3.8 99 0.0 WSW 32 37 17 20 - - 1.4
30/10:00pm 3.7 -3.8 3.6 99 0.0 W 32 39 17 21 - - 1.4
30/09:30pm 3.9 -3.2 3.8 99 0.0 W 30 41 16 22 - - 1.4
30/09:00pm 3.9 -3.7 3.8 99 0.0 W 33 43 18 23 - - 1.4
30/08:30pm 4.0 -3.4 3.9 99 0.0 WSW 32 43 17 23 - - 1.4
30/08:00pm 4.0 -3.5 3.7 98 0.1 W 32 43 17 23 - - 1.4
30/07:30pm 4.0 -2.7 3.7 98 0.1 W 28 41 15 22 - - 1.4
30/07:00pm 3.8 -1.8 3.5 98 0.1 W 22 32 12 17 - - 1.4
30/06:30pm 3.7 -1.5 3.4 98 0.1 WNW 20 26 11 14 - - 1.4
30/06:00pm 3.6 -2.8 3.2 97 0.2 WNW 26 32 14 17 - - 1.4
30/05:30pm 3.7 -3.1 3.3 97 0.2 W 28 39 15 21 - - 1.4
30/05:00pm 3.9 -2.1 3.5 97 0.2 W 24 32 13 17 - - 1.2
30/04:30pm 4.2 -2.1 3.8 97 0.2 WNW 26 41 14 22 - - 0.8
30/04:00pm 4.3 -2.0 3.9 97 0.2 WNW 26 39 14 21 - - 0.4
30/03:30pm 4.5 -1.8 3.9 96 0.3 WNW 26 33 14 18 - - 0.2
30/03:00pm 4.7 -0.5 3.8 94 0.4 NW 20 28 11 15 - - 0.0
30/02:30pm 5.2 0.1 4.0 92 0.5 NW 20 28 11 15 - - 0.0
30/02:00pm 5.3 -0.6 3.8 90 0.7 NW 24 33 13 18 - - 0.0
30/01:30pm 5.8 0.3 3.8 87 0.9 NNW 22 39 12 21 - - 0.0
30/01:00pm 5.4 0.7 3.4 87 0.9 N 17 24 9 13 - - 0.0
30/12:30pm 4.9 0.2 3.2 89 0.7 NNW 17 24 9 13 - - 0.0
30/12:00pm 4.5 0.9 3.2 91 0.6 NNW 11 17 6 9 - - 0.0
30/11:30am 4.2 1.0 3.0 92 0.5 NNW 9 13 5 7 - - 0.0
30/11:00am 4.3 -0.5 2.7 89 0.7 NNW 17 26 9 14 - - 0.0
30/10:30am 4.1 -0.7 2.6 90 0.6 N 17 24 9 13 - - 0.0
30/10:00am 3.8 -1.4 2.3 90 0.6 N 19 26 10 14 - - 0.0
30/09:30am 3.5 0.2 2.3 92 0.5 NNW 9 20 5 11 - - 0.0
30/09:00am 3.2 -1.0 1.7 90 0.6 NNW 13 22 7 12 - - 0.4
30/08:30am 3.2 -1.0 1.7 90 0.6 NNW 13 20 7 11 - - 0.4
30/08:00am 3.0 -0.8 1.5 90 0.6 NNW 11 17 6 9 - - 0.4
30/07:30am 3.0 0.1 1.2 88 0.7 NW 6 11 3 6 - - 0.4
30/07:00am 3.1 -1.2 1.0 86 0.8 NNW 13 19 7 10 - - 0.4
30/06:30am 3.4 -1.7 0.8 83 1.0 NNW 17 28 9 15 - - 0.4
30/06:00am 3.4 -3.8 0.8 83 1.0 NNW 28 44 15 24 - - 0.4
30/05:42am 3.5 -4.5 0.4 80 1.2 NNW 32 50 17 27 - - 0.4
30/05:30am 3.6 -4.4 0.5 80 1.2 NNW 32 48 17 26 - - 0.4
30/05:02am 3.4 -4.6 0.6 82 1.1 NW 32 52 17 28 - - 0.4
30/05:00am 3.2 -4.7 0.8 84 1.0 NW 32 46 17 25 - - 0.4
30/04:38am 3.3 -3.8 1.3 87 0.8 NW 28 46 15 25 - - 0.4
30/04:30am 3.4 -3.7 1.4 87 0.8 NNW 28 43 15 23 - - 0.4
30/04:00am 3.4 -2.5 1.9 90 0.6 NNW 22 35 12 19 - - 0.4
30/03:30am 3.4 -2.4 2.1 91 0.5 NW 22 30 12 16 - - 0.2
30/03:00am 3.9 -3.4 2.3 89 0.7 NNW 30 44 16 24 - - 0.2
30/02:30am 3.9 -1.9 2.3 89 0.7 NNW 22 33 12 18 - - 0.2
30/02:00am 3.5 -1.9 2.2 91 0.5 NNW 20 28 11 15 - - 0.2
30/01:30am 3.4 -1.9 2.1 91 0.5 NNW 19 24 10 13 - - 0.2
30/01:00am 3.7 -1.1 2.4 91 0.5 N 17 24 9 13 - - 0.2
30/12:30am 3.4 -1.8 2.2 92 0.5 NNW 19 24 10 13 - - 0.2
30/12:00am 3.7 -1.5 2.2 90 0.6 NNW 19 26 10 14 - - 0.2
 
Date/Time
EST
Temp
°C
App
Temp
°C
Dew
Point
°C
Rel
Hum
%
Delta-T
°C
Wind Press
QNH
hPa
Press
MSL
hPa
Rain since
9am
mm
Dir  Spd
km/h
Gust
km/h
Spd
kts
Gust
kts
29/11:30pm 4.0 -2.1 2.5 90 0.6 NNW 24 35 13 19 - - 0.2
29/11:00pm 3.8 -2.7 2.6 92 0.5 NW 26 35 14 19 - - 0.2
29/10:30pm 4.2 -1.1 3.0 92 0.5 NW 20 26 11 14 - - 0.2
29/10:00pm 4.2 -1.4 3.3 94 0.4 NW 22 30 12 16 - - 0.2
29/09:30pm 4.1 -1.9 3.2 94 0.4 NW 24 32 13 17 - - 0.2
29/09:00pm 4.4 -2.3 3.4 93 0.4 NW 28 35 15 19 - - 0.2
29/08:30pm 4.4 -2.4 3.2 92 0.5 NW 28 39 15 21 - - 0.2
29/08:00pm 4.0 -2.8 3.0 93 0.4 NNW 28 35 15 19 - - 0.2
29/07:30pm 3.7 -2.8 2.7 93 0.4 NNW 26 33 14 18 - - 0.2
29/07:00pm 3.1 -1.0 2.4 95 0.3 NW 13 20 7 11 - - 0.2
29/06:30pm 3.7 0.5 3.0 95 0.3 NNE 9 13 5 7 - - 0.2
29/06:00pm 3.7 1.4 2.7 93 0.4 NNW 4 13 2 7 - - 0.2
29/05:30pm 3.7 -1.1 2.7 93 0.4 WNW 17 20 9 11 - - 0.2

Other Formats:

Comma delimited format used in spreadsheet applications
http://www.bom.gov.au/fwo/IDT60801/IDT60801.94977.axf

JavaScript Object Notation format (JSON) in row-major order
http://www.bom.gov.au/fwo/IDT60801/IDT60801.94977.json